Terminal Aerodrome Forecast
Issued by NWS Sioux Falls, SD

Home | Current Version | Previous Version | Text Only | Print | Product List | Glossary On
Versions: 1 2 3 4 5 6 7 8 9 10 11 12 13 14 15 16 17 18 19 20 21 22 23 24 25 26 27 28 29
000
FTUS43 KFSD 302334
TAFSUX
TAF
KSUX 302334Z 3100/3124 15008KT 6SM FU BKN200
     FM311100 15008KT 4SM BR SCT007
      TEMPO 3111/3114 2SM BR BKN007
     FM311600 18012G19KT P6SM SKC
      AMD NOT SKED=

USA.gov is the U.S. government's official web portal to all federal, state and local government web resources and services.